createdAt,value
2017-07-03T00:01:24.789Z,77.20
2017-07-03T00:03:53.247Z,77.50
2017-07-03T00:06:21.656Z,77.40
2017-07-03T00:08:50.829Z,77.10
2017-07-03T00:11:19.252Z,77.10
2017-07-03T00:13:47.664Z,77.00
2017-07-03T00:16:17.068Z,77.50
2017-07-03T00:18:45.488Z,78.50
2017-07-03T00:21:14.669Z,78.10
2017-07-03T00:23:43.096Z,78.00
2017-07-03T00:26:11.492Z,78.40
2017-07-03T00:28:39.940Z,78.30
2017-07-03T00:31:09.115Z,78.20
2017-07-03T00:33:37.587Z,78.20
2017-07-03T00:36:06.012Z,78.20
2017-07-03T00:38:34.425Z,78.50
2017-07-03T00:41:03.560Z,78.50
2017-07-03T00:43:32.647Z,78.70
2017-07-03T00:46:01.820Z,78.80
2017-07-03T00:48:30.294Z,78.70
2017-07-03T00:50:58.714Z,79.00
2017-07-03T00:53:28.008Z,79.50
2017-07-03T00:55:57.291Z,79.50
2017-07-03T00:58:25.699Z,79.50
2017-07-03T01:00:54.133Z,79.40
2017-07-03T01:03:22.539Z,79.30
2017-07-03T01:05:51.309Z,79.40
2017-07-03T01:08:19.724Z,79.40
2017-07-03T01:10:48.152Z,79.40
2017-07-03T01:13:16.556Z,79.40
2017-07-03T01:15:45.747Z,79.80
2017-07-03T01:18:14.369Z,79.80
2017-07-03T01:20:44.237Z,79.70
2017-07-03T01:23:12.652Z,79.60
2017-07-03T01:25:41.084Z,79.90
2017-07-03T01:28:09.516Z,80.10
2017-07-03T01:30:37.940Z,79.90
2017-07-03T01:33:06.090Z,79.70
2017-07-03T01:35:35.947Z,79.90
2017-07-03T01:38:05.143Z,80.20
2017-07-03T01:40:33.546Z,80.00
2017-07-03T01:43:02.028Z,80.00
2017-07-03T01:45:30.496Z,80.10
2017-07-03T01:47:59.677Z,80.50
2017-07-03T01:50:28.516Z,80.30
2017-07-03T01:52:56.920Z,80.30
2017-07-03T01:55:25.372Z,80.50
2017-07-03T01:57:53.774Z,80.80
2017-07-03T02:00:22.196Z,80.70
2017-07-03T02:02:51.393Z,81.00
2017-07-03T02:05:20.573Z,80.80
2017-07-03T02:07:49.010Z,80.70
2017-07-03T02:10:17.432Z,80.80
2017-07-03T02:12:46.608Z,80.50
2017-07-03T02:15:15.032Z,80.90
2017-07-03T02:17:43.511Z,81.10
2017-07-03T02:20:11.949Z,81.30
2017-07-03T02:22:40.361Z,81.10
2017-07-03T02:25:09.544Z,81.30
2017-07-03T02:27:38.756Z,81.00
2017-07-03T02:30:07.932Z,81.70
2017-07-03T02:32:36.377Z,81.70
2017-07-03T02:35:04.805Z,81.60
2017-07-03T02:37:33.988Z,82.30
2017-07-03T02:40:03.194Z,81.90
2017-07-03T02:42:32.384Z,81.80
2017-07-03T02:45:01.609Z,82.00
2017-07-03T02:47:30.020Z,82.00
2017-07-03T02:49:58.435Z,82.20
2017-07-03T02:52:26.863Z,81.90
2017-07-03T02:54:55.280Z,82.00
2017-07-03T02:57:23.724Z,82.20
2017-07-03T02:59:52.518Z,82.20
2017-07-03T03:02:20.965Z,82.30
2017-07-03T03:04:49.388Z,82.30
2017-07-03T03:07:17.811Z,82.50
2017-07-03T03:09:47.016Z,82.20
2017-07-03T03:12:15.428Z,82.20
2017-07-03T03:14:43.843Z,82.00
2017-07-03T03:17:12.275Z,82.10
2017-07-03T03:19:40.680Z,82.30
2017-07-03T03:22:09.109Z,82.20
2017-07-03T03:24:37.528Z,82.20
2017-07-03T03:27:06.436Z,82.20
2017-07-03T03:29:34.889Z,82.30
2017-07-03T03:32:03.343Z,82.60
2017-07-03T03:34:31.777Z,82.40
2017-07-03T03:37:00.186Z,82.40
2017-07-03T03:39:29.382Z,82.70
2017-07-03T03:41:58.557Z,82.60
2017-07-03T03:44:27.064Z,82.50
2017-07-03T03:46:55.477Z,82.80
2017-07-03T03:49:23.883Z,82.90
2017-07-03T03:51:52.299Z,82.80
2017-07-03T03:54:21.463Z,82.60
2017-07-03T03:56:49.892Z,82.50
2017-07-03T03:59:18.296Z,81.80
2017-07-03T04:01:46.737Z,81.60
2017-07-03T04:04:15.160Z,81.70
2017-07-03T04:06:43.588Z,81.90
2017-07-03T04:09:12.787Z,81.60
2017-07-03T04:11:41.199Z,81.60
2017-07-03T04:14:09.616Z,81.90
2017-07-03T04:16:38.056Z,82.10
2017-07-03T04:19:06.509Z,82.10
2017-07-03T04:21:36.285Z,81.90
2017-07-03T04:24:04.712Z,81.90
2017-07-03T04:26:33.140Z,81.90
2017-07-03T04:29:01.547Z,81.80
2017-07-03T04:31:30.745Z,81.60
2017-07-03T04:33:59.172Z,81.60
2017-07-03T04:36:28.296Z,81.40
2017-07-03T04:38:56.717Z,81.10
2017-07-03T04:41:25.136Z,81.00
2017-07-03T04:43:53.828Z,81.20
2017-07-03T04:46:22.235Z,81.10
2017-07-03T04:48:51.438Z,80.60
2017-07-03T04:51:19.850Z,80.60
2017-07-03T04:53:48.283Z,80.80
2017-07-03T04:56:17.456Z,81.50
2017-07-03T04:58:45.881Z,81.30
2017-07-03T05:01:14.300Z,81.70
2017-07-03T05:03:43.408Z,81.50
2017-07-03T05:06:11.863Z,81.30
2017-07-03T05:08:40.956Z,81.50
2017-07-03T05:11:09.383Z,81.30
2017-07-03T05:13:38.561Z,80.90
2017-07-03T05:16:06.981Z,80.70
2017-07-03T05:18:35.412Z,80.90
2017-07-03T05:21:03.836Z,81.30
2017-07-03T05:23:32.275Z,80.00
2017-07-03T05:26:00.675Z,79.90
2017-07-03T05:28:29.576Z,80.40
2017-07-03T05:30:57.794Z,80.40
2017-07-03T05:33:26.229Z,80.60
2017-07-03T05:35:55.328Z,80.90
2017-07-03T05:38:23.752Z,80.70
2017-07-03T05:40:52.002Z,80.00
2017-07-03T05:43:26.076Z,81.60
2017-07-03T05:45:55.275Z,80.70
2017-07-03T05:48:24.459Z,81.00
2017-07-03T05:50:52.926Z,81.00
2017-07-03T05:53:21.349Z,81.00
2017-07-03T05:55:49.775Z,80.30
2017-07-03T05:58:18.196Z,80.20
2017-07-03T06:00:47.184Z,79.30
2017-07-03T06:03:16.394Z,79.80
2017-07-03T06:05:44.804Z,79.80
2017-07-03T06:08:13.239Z,80.10
2017-07-03T06:10:42.419Z,79.10
2017-07-03T06:13:11.603Z,79.00
2017-07-03T06:15:40.045Z,78.80
2017-07-03T06:18:08.509Z,79.40
2017-07-03T06:20:36.956Z,79.40
2017-07-03T06:23:05.356Z,78.90
2017-07-03T06:25:33.793Z,78.70
2017-07-03T06:28:02.220Z,78.60
2017-07-03T06:30:30.699Z,78.90
2017-07-03T06:32:59.115Z,79.00
2017-07-03T06:35:27.545Z,78.10
2017-07-03T06:37:56.708Z,77.60
2017-07-03T06:40:24.806Z,77.50
2017-07-03T06:42:53.240Z,77.40
2017-07-03T06:45:21.739Z,77.10
2017-07-03T06:47:50.148Z,77.20
2017-07-03T06:50:19.367Z,77.00
2017-07-03T06:52:47.776Z,77.00
2017-07-03T06:55:16.208Z,76.80
2017-07-03T06:57:45.388Z,76.40
2017-07-03T07:00:13.902Z,76.40
2017-07-03T07:02:42.316Z,76.00
2017-07-03T07:05:10.724Z,74.60
2017-07-03T07:07:39.931Z,74.20
2017-07-03T07:10:09.099Z,74.30
2017-07-03T07:12:37.619Z,74.30
2017-07-03T07:15:06.067Z,74.70
2017-07-03T07:17:34.499Z,74.50
2017-07-03T07:20:02.924Z,73.70
2017-07-03T07:22:31.347Z,73.40
2017-07-03T07:24:59.778Z,73.60
2017-07-03T07:27:28.187Z,73.40
2017-07-03T07:29:57.392Z,73.20
2017-07-03T07:32:25.805Z,73.20
2017-07-03T07:34:54.212Z,73.40
2017-07-03T07:37:22.637Z,73.10
2017-07-03T07:39:51.052Z,72.10
2017-07-03T07:42:19.475Z,72.10
2017-07-03T07:44:48.666Z,71.60
2017-07-03T07:47:17.987Z,71.70
2017-07-03T07:49:46.459Z,71.80
2017-07-03T07:52:14.933Z,70.50
2017-07-03T07:54:44.124Z,69.60
2017-07-03T07:57:13.313Z,68.80
2017-07-03T07:59:42.520Z,69.70
2017-07-03T08:02:11.683Z,69.80
2017-07-03T08:04:40.112Z,69.70
2017-07-03T08:07:08.583Z,69.10
2017-07-03T08:09:37.003Z,69.60
2017-07-03T08:12:05.069Z,67.50
2017-07-03T08:14:33.499Z,68.20
2017-07-03T08:17:02.608Z,67.90
2017-07-03T08:19:31.023Z,67.60
2017-07-03T08:21:59.476Z,66.20
2017-07-03T08:24:27.897Z,65.50
2017-07-03T08:26:56.327Z,65.80
2017-07-03T08:29:24.760Z,64.80
2017-07-03T08:31:53.164Z,67.30
2017-07-03T08:34:22.344Z,63.40
2017-07-03T08:36:50.760Z,63.40
2017-07-03T08:39:19.196Z,64.50
2017-07-03T08:41:47.607Z,65.20
2017-07-03T08:44:16.027Z,64.60
2017-07-03T08:46:44.444Z,62.20
2017-07-03T08:49:13.635Z,63.90
2017-07-03T08:51:42.057Z,63.20
2017-07-03T08:54:10.456Z,61.20
2017-07-03T08:56:40.387Z,61.40
2017-07-03T08:59:08.791Z,57.70
2017-07-03T09:01:38.125Z,59.80
2017-07-03T09:04:06.196Z,58.90
2017-07-03T09:06:34.624Z,57.00
2017-07-03T09:09:03.072Z,56.40
2017-07-03T09:11:31.485Z,56.80
2017-07-03T09:13:59.922Z,57.00
2017-07-03T09:16:31.674Z,56.50
2017-07-03T09:19:00.146Z,54.00
2017-07-03T09:21:28.569Z,54.00
2017-07-03T09:23:56.977Z,51.20
2017-07-03T09:26:26.165Z,49.50
2017-07-03T09:28:54.598Z,49.40
2017-07-03T09:31:23.028Z,51.30
2017-07-03T09:33:52.213Z,51.70
2017-07-03T09:36:20.648Z,51.00
2017-07-03T09:38:52.018Z,51.50
2017-07-03T09:41:20.448Z,49.70
2017-07-03T09:43:49.642Z,49.00
2017-07-03T09:46:18.824Z,49.50
2017-07-03T09:48:47.245Z,49.40
2017-07-03T09:51:15.656Z,50.60
2017-07-03T09:53:44.088Z,49.00
2017-07-03T09:56:12.520Z,48.60
2017-07-03T09:58:40.974Z,49.60
2017-07-03T10:01:09.379Z,51.70
2017-07-03T10:03:37.837Z,46.40
2017-07-03T10:06:06.277Z,47.10
2017-07-03T10:08:35.457Z,45.90
2017-07-03T10:11:03.893Z,45.90
2017-07-03T10:13:32.301Z,47.30
2017-07-03T10:16:00.740Z,46.10
2017-07-03T10:18:29.160Z,45.10
2017-07-03T10:20:57.586Z,44.20
2017-07-03T10:23:26.065Z,44.30
2017-07-03T10:25:54.463Z,44.20
2017-07-03T10:28:22.897Z,42.80
2017-07-03T10:30:51.136Z,44.20
2017-07-03T10:33:19.764Z,43.90
2017-07-03T10:35:48.177Z,43.80
2017-07-03T10:38:16.599Z,41.80
2017-07-03T10:40:45.043Z,42.60
2017-07-03T10:43:13.481Z,46.80
2017-07-03T10:45:41.902Z,43.30
2017-07-03T10:48:10.316Z,43.30
2017-07-03T10:50:39.524Z,48.10
2017-07-03T10:53:07.929Z,48.00
2017-07-03T10:55:36.362Z,41.40
2017-07-03T10:58:04.795Z,43.10
2017-07-03T11:00:33.201Z,44.50
2017-07-03T11:03:01.661Z,46.30
2017-07-03T11:05:30.060Z,44.00
2017-07-03T11:07:58.504Z,45.10
2017-07-03T11:10:26.912Z,46.10
2017-07-03T11:12:55.341Z,44.90
2017-07-03T11:15:23.760Z,42.90
2017-07-03T11:17:52.171Z,46.30
2017-07-03T11:20:20.596Z,47.70
2017-07-03T11:22:49.020Z,46.50
2017-07-03T11:25:17.462Z,42.40
2017-07-03T11:27:45.895Z,42.00
2017-07-03T11:30:15.071Z,41.60
2017-07-03T11:32:43.503Z,40.80
2017-07-03T11:35:13.373Z,46.00
2017-07-03T11:37:41.816Z,45.90
2017-07-03T11:40:10.229Z,42.90
2017-07-03T11:42:38.670Z,44.70
2017-07-03T11:45:07.104Z,44.20
2017-07-03T11:47:36.332Z,45.90
2017-07-03T11:50:04.775Z,45.80
2017-07-03T11:52:33.181Z,47.20
2017-07-03T11:55:01.613Z,46.60
2017-07-03T11:57:30.042Z,47.20
2017-07-03T11:59:58.546Z,47.20
2017-07-03T12:02:26.978Z,47.40
2017-07-03T12:04:56.190Z,47.50
2017-07-03T12:07:24.690Z,47.40
2017-07-03T12:09:53.116Z,47.70
2017-07-03T12:12:21.555Z,48.70
2017-07-03T12:14:49.978Z,48.40
2017-07-03T12:17:19.189Z,47.50
2017-07-03T12:19:48.361Z,47.70
2017-07-03T12:22:16.824Z,47.60
2017-07-03T12:24:45.240Z,47.20
2017-07-03T12:27:14.421Z,46.90
2017-07-03T12:29:42.929Z,46.80
2017-07-03T12:32:12.111Z,48.30
2017-07-03T12:34:41.310Z,46.10
2017-07-03T12:37:12.519Z,46.80
2017-07-03T12:39:41.767Z,46.70
2017-07-03T12:42:10.951Z,42.90
2017-07-03T12:44:40.125Z,45.00
2017-07-03T12:47:08.700Z,45.00
2017-07-03T12:49:39.731Z,45.70
2017-07-03T12:52:08.171Z,45.60
2017-07-03T12:54:36.574Z,43.60
2017-07-03T12:57:05.019Z,45.20
2017-07-03T12:59:33.455Z,45.90
2017-07-03T13:02:01.877Z,46.50
2017-07-03T13:04:30.299Z,47.50
2017-07-03T13:06:58.716Z,48.00
2017-07-03T13:09:27.945Z,47.40
2017-07-03T13:11:56.382Z,47.20
2017-07-03T13:14:24.813Z,46.20
2017-07-03T13:16:53.240Z,47.00
2017-07-03T13:19:21.667Z,47.60
2017-07-03T13:21:50.099Z,47.60
2017-07-03T13:24:18.666Z,47.80
2017-07-03T13:26:47.090Z,47.70
2017-07-03T13:29:16.449Z,47.90
2017-07-03T13:31:44.882Z,48.00
2017-07-03T13:34:13.308Z,48.30
2017-07-03T13:36:41.849Z,47.70
2017-07-03T13:39:10.279Z,45.70
2017-07-03T13:41:38.709Z,43.60
2017-07-03T13:44:07.186Z,45.90
2017-07-03T13:46:35.612Z,46.30
2017-07-03T13:49:05.732Z,46.50
2017-07-03T13:51:35.105Z,48.70
2017-07-03T13:54:03.671Z,48.50
2017-07-03T13:56:32.245Z,48.70
2017-07-03T13:59:00.674Z,47.50
2017-07-03T14:01:29.275Z,44.80
2017-07-03T14:03:57.822Z,47.10
2017-07-03T14:06:26.236Z,47.30
2017-07-03T14:08:54.990Z,48.00
2017-07-03T14:11:23.485Z,48.00
2017-07-03T14:13:52.495Z,46.50
2017-07-03T14:16:21.691Z,47.10
2017-07-03T14:18:50.899Z,48.00
2017-07-03T14:21:20.063Z,46.60
2017-07-03T14:23:48.735Z,47.00
2017-07-03T14:26:17.232Z,48.10
2017-07-03T14:28:45.648Z,48.70
2017-07-03T14:31:14.086Z,48.30
2017-07-03T14:33:42.517Z,49.30
2017-07-03T14:36:11.393Z,48.40
2017-07-03T14:38:39.815Z,48.80
2017-07-03T14:41:08.231Z,48.50
2017-07-03T14:43:37.587Z,49.30
2017-07-03T14:46:06.002Z,49.20
2017-07-03T14:48:34.416Z,48.90
2017-07-03T14:51:02.843Z,48.60
2017-07-03T14:53:31.301Z,48.10
2017-07-03T14:55:59.724Z,48.60
2017-07-03T14:58:28.963Z,48.00
2017-07-03T15:00:57.384Z,47.90
2017-07-03T15:03:25.799Z,48.90
2017-07-03T15:05:54.227Z,48.50
2017-07-03T15:08:22.765Z,49.20
2017-07-03T15:10:51.342Z,45.70
2017-07-03T15:13:20.939Z,48.20
2017-07-03T15:15:49.377Z,48.50
2017-07-03T15:18:17.804Z,48.50
2017-07-03T15:20:46.992Z,49.40
2017-07-03T15:23:16.201Z,49.40
2017-07-03T15:25:44.604Z,49.30
2017-07-03T15:28:13.041Z,47.70
2017-07-03T15:30:42.257Z,49.10
2017-07-03T15:33:11.460Z,49.10
2017-07-03T15:35:40.165Z,49.00
2017-07-03T15:38:08.593Z,48.70
2017-07-03T15:40:37.805Z,48.40
2017-07-03T15:43:06.638Z,48.10
2017-07-03T15:45:35.072Z,48.00
2017-07-03T15:48:04.256Z,48.70
2017-07-03T15:50:32.948Z,48.70
2017-07-03T15:53:02.159Z,49.10
2017-07-03T15:55:30.587Z,49.00
2017-07-03T15:57:59.085Z,49.10
2017-07-03T16:00:27.518Z,49.50
2017-07-03T16:02:55.945Z,49.90
2017-07-03T16:05:24.370Z,50.30
2017-07-03T16:07:52.778Z,49.80
2017-07-03T16:10:21.219Z,50.40
2017-07-03T16:12:49.658Z,50.00
2017-07-03T16:15:18.089Z,50.00
2017-07-03T16:17:46.522Z,49.80
2017-07-03T16:20:14.947Z,49.90
2017-07-03T16:22:43.400Z,50.30
2017-07-03T16:25:12.579Z,49.10
2017-07-03T16:27:41.277Z,49.00
2017-07-03T16:30:10.457Z,50.00
2017-07-03T16:32:38.963Z,49.90
2017-07-03T16:35:07.405Z,50.50
2017-07-03T16:37:35.924Z,50.20
2017-07-03T16:40:04.468Z,48.50
2017-07-03T16:42:32.895Z,49.70
2017-07-03T16:45:01.332Z,50.00
2017-07-03T16:47:29.755Z,49.30
2017-07-03T16:49:58.308Z,49.70
2017-07-03T16:52:27.583Z,49.50
2017-07-03T16:54:56.025Z,49.40
2017-07-03T16:57:24.449Z,49.60
2017-07-03T16:59:52.879Z,49.80
2017-07-03T17:02:21.316Z,49.80
2017-07-03T17:04:49.735Z,48.80
2017-07-03T17:07:18.179Z,49.30
2017-07-03T17:09:47.396Z,46.40
2017-07-03T17:12:15.801Z,46.40
2017-07-03T17:14:44.240Z,46.10
2017-07-03T17:17:13.432Z,45.00
2017-07-03T17:19:42.628Z,45.70
2017-07-03T17:22:11.844Z,43.90
2017-07-03T17:24:40.295Z,43.90
2017-07-03T17:27:08.721Z,44.10
2017-07-03T17:29:38.573Z,44.40
2017-07-03T17:32:07.014Z,44.40
2017-07-03T17:34:35.446Z,43.10
2017-07-03T17:37:04.644Z,45.10
2017-07-03T17:39:33.066Z,44.50
2017-07-03T17:42:01.510Z,46.70
2017-07-03T17:44:30.691Z,46.50
2017-07-03T17:46:59.110Z,46.40
2017-07-03T17:49:27.537Z,45.60
2017-07-03T17:51:55.960Z,46.10
2017-07-03T17:54:25.145Z,47.00
2017-07-03T17:56:54.332Z,45.20
2017-07-03T17:59:23.541Z,46.70
2017-07-03T18:01:52.736Z,45.40
2017-07-03T18:04:21.904Z,45.70
2017-07-03T18:06:50.333Z,45.60
2017-07-03T18:09:18.388Z,45.80
2017-07-03T18:11:46.821Z,45.00
2017-07-03T18:14:15.240Z,44.80
2017-07-03T18:16:44.460Z,44.30
2017-07-03T18:19:12.893Z,44.30
2017-07-03T18:21:41.303Z,43.60
2017-07-03T18:24:09.740Z,43.30
2017-07-03T18:26:38.152Z,44.50
2017-07-03T18:29:07.338Z,43.50
2017-07-03T18:31:35.757Z,43.50
2017-07-03T18:34:04.193Z,43.80
2017-07-03T18:36:33.384Z,44.40
2017-07-03T18:39:01.797Z,44.40
2017-07-03T18:41:30.229Z,44.90
2017-07-03T18:43:58.630Z,44.20
2017-07-03T18:46:27.850Z,45.10
2017-07-03T18:48:57.022Z,44.70
2017-07-03T18:51:26.232Z,45.60
2017-07-03T18:53:55.413Z,46.20
2017-07-03T18:56:23.924Z,46.20
2017-07-03T18:58:52.532Z,46.10
2017-07-03T19:01:20.958Z,46.40
2017-07-03T19:03:49.377Z,46.60
2017-07-03T19:06:17.787Z,46.60
2017-07-03T19:08:45.561Z,48.10
2017-07-03T19:11:14.017Z,48.90
2017-07-03T19:13:42.449Z,49.40
2017-07-03T19:16:11.641Z,49.20
2017-07-03T19:18:40.784Z,49.30
2017-07-03T19:21:09.215Z,49.00
2017-07-03T19:23:38.396Z,49.10
2017-07-03T19:26:06.856Z,48.70
2017-07-03T19:28:35.282Z,49.40
2017-07-03T19:31:04.478Z,49.60
2017-07-03T19:33:33.696Z,50.20
2017-07-03T19:36:02.112Z,50.10
2017-07-03T19:38:30.536Z,50.70
2017-07-03T19:40:58.970Z,50.40
2017-07-03T19:43:27.418Z,51.30
2017-07-03T19:45:55.824Z,51.60
2017-07-03T19:48:24.237Z,51.40
2017-07-03T19:50:53.461Z,52.50
2017-07-03T19:53:21.876Z,52.00
2017-07-03T19:55:50.320Z,51.60
2017-07-03T19:58:18.737Z,52.40
2017-07-03T20:00:47.215Z,52.30
2017-07-03T20:03:15.621Z,52.40
2017-07-03T20:05:44.017Z,53.00
2017-07-03T20:08:13.216Z,52.50
2017-07-03T20:10:42.409Z,52.30
2017-07-03T20:13:11.627Z,52.10
2017-07-03T20:15:40.059Z,52.10
2017-07-03T20:18:08.507Z,53.00
2017-07-03T20:20:36.936Z,52.00
2017-07-03T20:23:05.604Z,52.30
2017-07-03T20:25:34.070Z,53.00
2017-07-03T20:28:02.481Z,52.40
2017-07-03T20:30:31.669Z,52.70
2017-07-03T20:33:00.861Z,53.10
2017-07-03T20:35:30.078Z,53.00
2017-07-03T20:37:59.286Z,53.40
2017-07-03T20:40:28.472Z,53.60
2017-07-03T20:42:57.724Z,53.30
2017-07-03T20:45:26.139Z,53.20
2017-07-03T20:47:55.343Z,53.00
2017-07-03T20:50:24.537Z,53.40
2017-07-03T20:52:53.753Z,53.80
2017-07-03T20:55:22.212Z,53.80
2017-07-03T20:57:50.664Z,54.10
2017-07-03T21:00:19.094Z,54.30
2017-07-03T21:02:47.510Z,54.20
2017-07-03T21:05:15.929Z,53.90
2017-07-03T21:07:45.122Z,53.40
2017-07-03T21:10:14.333Z,53.70
2017-07-03T21:12:43.526Z,53.40
2017-07-03T21:15:12.218Z,53.20
2017-07-03T21:17:40.645Z,53.80
2017-07-03T21:20:09.088Z,53.50
2017-07-03T21:22:37.720Z,54.00
2017-07-03T21:25:06.159Z,54.00
2017-07-03T21:27:34.630Z,54.20
2017-07-03T21:30:03.039Z,55.10
2017-07-03T21:32:31.470Z,55.20
2017-07-03T21:35:00.665Z,54.80
2017-07-03T21:37:29.849Z,54.90
2017-07-03T21:39:58.375Z,54.80
2017-07-03T21:42:26.796Z,55.10
2017-07-03T21:44:54.879Z,55.30
2017-07-03T21:47:24.076Z,55.10
2017-07-03T21:49:52.522Z,55.00
2017-07-03T21:52:20.933Z,55.50
2017-07-03T21:54:49.341Z,55.50
2017-07-03T21:57:17.782Z,55.90
2017-07-03T21:59:46.201Z,56.00
2017-07-03T22:02:14.636Z,55.90
2017-07-03T22:04:43.051Z,56.10
2017-07-03T22:07:11.776Z,55.90
2017-07-03T22:09:40.374Z,55.70
2017-07-03T22:12:08.804Z,55.60
2017-07-03T22:14:37.232Z,55.70
2017-07-03T22:17:05.656Z,55.70
2017-07-03T22:19:34.098Z,56.00
2017-07-03T22:22:02.519Z,55.90
2017-07-03T22:24:30.959Z,56.20
2017-07-03T22:26:59.370Z,56.50
2017-07-03T22:29:27.788Z,56.80
2017-07-03T22:31:56.239Z,57.40
2017-07-03T22:34:24.644Z,57.60
2017-07-03T22:36:53.076Z,58.10
2017-07-03T22:39:21.571Z,58.80
2017-07-03T22:41:50.027Z,58.70
2017-07-03T22:44:19.261Z,59.20
2017-07-03T22:46:47.756Z,58.70
2017-07-03T22:49:17.204Z,59.40
2017-07-03T22:51:45.628Z,59.40
2017-07-03T22:54:14.096Z,59.60
2017-07-03T22:56:42.520Z,59.80
2017-07-03T22:59:10.991Z,60.00
2017-07-03T23:01:39.395Z,60.60
2017-07-03T23:04:08.584Z,60.60
2017-07-03T23:06:37.025Z,60.50
2017-07-03T23:09:04.764Z,61.40
2017-07-03T23:11:33.180Z,61.20
2017-07-03T23:14:01.259Z,61.80
2017-07-03T23:16:31.713Z,61.80
2017-07-03T23:19:00.198Z,61.90
2017-07-03T23:21:29.417Z,61.90
2017-07-03T23:23:57.859Z,61.80
2017-07-03T23:26:26.280Z,62.40
2017-07-03T23:28:54.704Z,62.30
2017-07-03T23:31:23.120Z,62.20
2017-07-03T23:33:52.315Z,62.30
2017-07-03T23:36:21.492Z,62.50
2017-07-03T23:38:49.583Z,62.40
2017-07-03T23:41:18.780Z,62.80
2017-07-03T23:43:47.985Z,62.70
2017-07-03T23:46:17.160Z,62.90
2017-07-03T23:48:45.219Z,62.70
2017-07-03T23:51:13.670Z,62.90
2017-07-03T23:53:42.083Z,62.80
2017-07-03T23:56:10.522Z,63.00
2017-07-03T23:58:38.943Z,63.00
